aviador You're here:

KALS Decoded Metar

ALAMOSA in CO, USA
Report Time2018-07-22 02:52:00
UTC Time2018-07-22 03:06:49
Flight Rules vfr VFR
Wind220° at 03 kt
W.Decomp.*RWY 20: 2.9 kt HW 0.6 kt RCW
W.Rank220° ranks 4
Current wind is below 220° avg. (9.1)
Visibility9999 m
Phenomena:N/A
Clouds:Broken 110 Hf
Expected CloudBase > 2,000 ft AGL from Temp-Dew spread
Ceiling11,000 ft
Temp19°C (ISA +19)
Dew Point14°C (73% RH)
QNH1028 hPa
Density Alt9,462 ft
Elevation7,543 ft
Report Wrong Elevation
Raw Report
KALS 220252Z AUTO 22003KT 10SM BKN110 19/14 A3036 RMK AO2 LTG DSNT
W SLP182 60002 T01890139 53009=

Extra information for KALS:More info

Metar Taf Metar & Taf Last 4 Metars F.Rules Stats Wind Profile Meteogram Temp Stats Airport Information Weather charts Add Link Nearby VenuesMetar ALERT Operation Metar Decoded Social comments

AIRNAV info for KALS